Time;durP1;ratioP1;P1;durP2;ratioP2;P2;SDS_P1;SDS_P2;PMS_P1;PMS_P2;Temp;Humidity;BMP_temperature;BMP_pressure;BME280_temperature;BME280_humidity;BME280_pressure;Samples;Min_cycle;Max_cycle;Signal;HPM_P1;HPM_P2
2023/05/28 00:02:15;;;;;;;3.58;1.83;;;10.70;99.90;;;;;;5111216;28;20114;-64
2023/05/28 00:04:42;;;;;;;5.03;1.92;;;10.70;99.90;;;;;;5075372;28;20169;-63
2023/05/28 00:07:10;;;;;;;3.80;1.70;;;10.70;99.90;;;;;;5111114;28;20043;-63
2023/05/28 00:09:37;;;;;;;6.00;1.73;;;10.70;99.90;;;;;;5075621;28;20553;-63
2023/05/28 00:12:03;;;;;;;3.72;1.58;;;10.70;99.90;;;;;;5110128;28;20039;-64
2023/05/28 00:14:29;;;;;;;4.30;1.83;;;10.80;99.90;;;;;;5076069;28;20098;-64
2023/05/28 00:16:56;;;;;;;2.97;1.25;;;10.70;99.90;;;;;;5110901;28;20399;-64
2023/05/28 00:19:22;;;;;;;5.72;1.25;;;10.70;99.90;;;;;;5092083;28;20055;-63
2023/05/28 00:21:47;;;;;;;3.05;1.88;;;10.80;99.90;;;;;;5092748;28;20040;-63
2023/05/28 00:24:13;;;;;;;1.52;1.10;;;10.70;99.90;;;;;;5110989;28;20122;-63
2023/05/28 00:26:39;;;;;;;3.58;1.92;;;10.70;99.90;;;;;;5091634;28;20093;-64
2023/05/28 00:29:05;;;;;;;6.63;1.52;;;10.70;99.90;;;;;;5092196;28;20081;-63
2023/05/28 00:31:30;;;;;;;2.38;1.52;;;10.70;99.90;;;;;;5092244;28;20035;-63
2023/05/28 00:33:56;;;;;;;6.72;1.75;;;10.60;99.90;;;;;;5091712;28;20050;-63
2023/05/28 00:36:22;;;;;;;4.90;1.13;;;10.70;99.90;;;;;;5092264;28;20039;-63
2023/05/28 00:38:48;;;;;;;2.17;1.23;;;10.60;99.90;;;;;;5074980;28;20039;-63
2023/05/28 00:41:22;;;;;;;4.88;1.00;;;10.60;99.90;;;;;;5092205;28;20401;-63
2023/05/28 00:43:57;;;;;;;1.90;0.85;;;10.60;99.90;;;;;;5075495;28;20127;-63
2023/05/28 00:46:24;;;;;;;1.98;0.98;;;10.60;99.90;;;;;;5109903;28;20092;-64
2023/05/28 00:48:50;;;;;;;4.38;1.58;;;10.70;99.90;;;;;;5110575;28;20040;-63
2023/05/28 00:51:17;;;;;;;6.25;1.80;;;10.70;99.90;;;;;;5091418;28;20043;-63
2023/05/28 00:53:43;;;;;;;2.97;1.52;;;10.70;99.90;;;;;;5091614;28;20043;-63
2023/05/28 00:56:12;;;;;;;3.10;1.42;;;10.80;99.90;;;;;;5092138;28;20126;-63
2023/05/28 00:58:43;;;;;;;3.17;1.33;;;10.80;99.90;;;;;;5110401;28;20066;-63
2023/05/28 01:01:12;;;;;;;4.05;1.42;;;10.80;99.90;;;;;;5109479;28;20047;-64
2023/05/28 01:03:38;;;;;;;2.42;1.67;;;10.80;99.90;;;;;;5110271;28;20071;-63
2023/05/28 01:06:11;;;;;;;3.72;1.30;;;10.80;99.90;;;;;;5091751;28;20069;-63
2023/05/28 01:08:41;;;;;;;4.95;2.10;;;10.80;99.90;;;;;;5109330;28;20044;-63
2023/05/28 01:11:10;;;;;;;8.00;2.67;;;10.80;99.90;;;;;;5092190;28;20479;-63
2023/05/28 01:13:37;;;;;;;8.35;2.65;;;10.90;99.90;;;;;;5091475;28;20079;-63
2023/05/28 01:16:03;;;;;;;5.50;2.42;;;10.90;99.90;;;;;;5110170;28;20044;-63
2023/05/28 01:18:31;;;;;;;2.53;1.17;;;10.80;99.90;;;;;;5075002;28;20048;-63
2023/05/28 01:21:01;;;;;;;2.95;1.35;;;10.80;99.90;;;;;;5074273;28;20044;-63
2023/05/28 01:23:28;;;;;;;5.13;1.50;;;10.80;99.90;;;;;;5074779;28;20494;-63
2023/05/28 01:25:59;;;;;;;4.82;2.28;;;10.80;99.90;;;;;;5109188;28;20067;-63
2023/05/28 01:28:25;;;;;;;4.97;2.13;;;10.70;99.90;;;;;;5108268;28;20039;-63
2023/05/28 01:30:52;;;;;;;4.75;1.55;;;10.70;99.90;;;;;;5109260;28;20035;-63
2023/05/28 01:33:21;;;;;;;2.97;1.00;;;10.70;99.90;;;;;;5091164;28;20400;-63
2023/05/28 01:35:47;;;;;;;2.95;1.70;;;10.60;99.90;;;;;;5089994;28;20127;-63
2023/05/28 01:41:54;;;;;;;4.80;2.05;;;10.60;99.90;;;;;;5108414;28;20077;-63
2023/05/28 01:44:20;;;;;;;3.28;1.65;;;10.60;99.90;;;;;;5073751;28;20491;-63
2023/05/28 01:46:47;;;;;;;2.25;1.58;;;10.60;99.90;;;;;;5074028;28;20047;-63
2023/05/28 01:49:14;;;;;;;4.28;1.00;;;10.60;99.90;;;;;;5108352;28;20043;-63
2023/05/28 01:51:39;;;;;;;3.83;1.85;;;10.50;99.90;;;;;;5108948;28;20093;-63
2023/05/28 01:54:05;;;;;;;5.95;2.05;;;10.50;99.90;;;;;;5108344;28;20237;-63
2023/05/28 01:56:31;;;;;;;10.05;1.67;;;10.50;99.90;;;;;;5090190;28;20126;-64
2023/05/28 01:58:57;;;;;;;4.20;1.40;;;10.50;99.90;;;;;;5108962;28;20135;-63
2023/05/28 02:01:32;;;;;;;5.93;2.25;;;10.50;99.90;;;;;;5090393;28;20047;-63
2023/05/28 02:03:59;;;;;;;3.58;1.75;;;10.50;99.90;;;;;;5093328;28;20040;-64
2023/05/28 02:06:29;;;;;;;4.57;1.13;;;10.50;99.90;;;;;;5094046;28;20043;-63
2023/05/28 02:08:55;;;;;;;2.80;1.83;;;10.50;99.90;;;;;;5112693;28;20047;-64
2023/05/28 02:11:21;;;;;;;2.90;1.80;;;10.50;99.90;;;;;;5093352;28;20043;-63
2023/05/28 02:13:48;;;;;;;3.25;1.38;;;10.50;99.90;;;;;;5112525;28;20047;-63
2023/05/28 02:16:17;;;;;;;3.25;1.67;;;10.50;99.90;;;;;;5094120;28;20043;-63
2023/05/28 02:18:49;;;;;;;3.75;1.38;;;10.60;99.90;;;;;;5093432;28;20488;-63
2023/05/28 02:21:17;;;;;;;2.35;1.20;;;10.60;99.90;;;;;;5112305;28;20031;-63
2023/05/28 02:23:44;;;;;;;3.95;1.30;;;10.60;99.90;;;;;;5111747;28;20407;-62
2023/05/28 02:26:10;;;;;;;5.78;1.80;;;10.60;99.90;;;;;;5112083;28;20081;-63
2023/05/28 02:28:36;;;;;;;4.68;1.52;;;10.60;99.90;;;;;;5112221;28;20078;-63
2023/05/28 02:31:02;;;;;;;2.00;1.23;;;10.60;99.90;;;;;;5076135;28;20040;-63
2023/05/28 02:33:28;;;;;;;5.03;2.33;;;10.60;99.90;;;;;;5093574;28;20051;-63
2023/05/28 02:35:54;;;;;;;1.88;1.10;;;10.60;99.90;;;;;;5111727;28;20043;-63
2023/05/28 02:38:20;;;;;;;2.88;1.40;;;10.60;99.90;;;;;;5092915;28;20043;-63
2023/05/28 02:40:46;;;;;;;4.43;1.75;;;10.60;99.90;;;;;;5111698;28;20044;-63
2023/05/28 02:43:12;;;;;;;2.22;1.35;;;10.60;99.90;;;;;;5093688;28;20036;-63
2023/05/28 02:45:38;;;;;;;4.47;1.33;;;10.60;99.90;;;;;;5111244;28;20394;-63
2023/05/28 02:48:04;;;;;;;3.67;1.52;;;10.50;99.90;;;;;;5111972;28;20056;-63
2023/05/28 02:50:29;;;;;;;3.60;1.70;;;10.60;99.90;;;;;;5093309;28;20051;-63
2023/05/28 02:52:56;;;;;;;1.80;1.15;;;10.60;99.90;;;;;;5092897;28;20044;-63
2023/05/28 02:55:22;;;;;;;3.40;1.60;;;10.60;99.90;;;;;;5076260;28;20514;-63
2023/05/28 02:57:48;;;;;;;5.63;1.55;;;10.50;99.90;;;;;;5093275;28;20096;-63
2023/05/28 03:00:14;;;;;;;5.97;1.45;;;10.50;99.90;;;;;;5092600;28;20323;-63
2023/05/28 03:02:40;;;;;;;4.05;1.95;;;10.50;99.90;;;;;;5111497;28;20043;-63
2023/05/28 03:05:06;;;;;;;3.65;1.83;;;10.50;99.90;;;;;;5093126;28;20134;-63
2023/05/28 03:07:32;;;;;;;4.45;2.13;;;10.50;99.90;;;;;;5092458;28;20036;-63
2023/05/28 03:09:58;;;;;;;5.10;1.52;;;10.50;99.90;;;;;;5111093;28;20032;-63
2023/05/28 03:12:24;;;;;;;3.20;1.55;;;10.50;99.90;;;;;;5092758;28;20050;-63
2023/05/28 03:14:50;;;;;;;3.58;1.52;;;10.50;99.90;;;;;;5074977;28;20035;-63
2023/05/28 03:17:16;;;;;;;3.40;1.20;;;10.40;99.90;;;;;;5076145;28;20077;-63
2023/05/28 03:19:42;;;;;;;5.00;1.23;;;10.40;99.90;;;;;;5092426;28;20040;-63
2023/05/28 03:22:08;;;;;;;4.18;1.70;;;10.40;99.90;;;;;;5092929;28;20061;-63
2023/05/28 03:24:34;;;;;;;5.57;2.22;;;10.30;99.90;;;;;;5110771;28;20044;-63
2023/05/28 03:27:01;;;;;;;2.92;1.45;;;10.30;99.90;;;;;;5110539;28;20075;-63
2023/05/28 03:29:27;;;;;;;3.58;1.60;;;10.30;99.90;;;;;;5111174;28;20097;-62
2023/05/28 03:31:53;;;;;;;2.42;1.27;;;10.30;99.90;;;;;;5092462;28;20040;-63
2023/05/28 03:34:20;;;;;;;5.85;2.03;;;10.30;99.90;;;;;;5092035;28;20074;-63
2023/05/28 03:36:46;;;;;;;2.83;0.82;;;10.20;99.90;;;;;;5110862;28;20043;-62
2023/05/28 03:39:12;;;;;;;4.57;1.50;;;10.20;99.90;;;;;;5092290;28;20108;-62
2023/05/28 03:41:38;;;;;;;2.58;1.65;;;10.20;99.90;;;;;;5110170;28;20395;-63
2023/05/28 03:44:05;;;;;;;4.07;2.55;;;10.20;99.90;;;;;;5092258;28;20043;-63
2023/05/28 03:46:31;;;;;;;4.32;1.38;;;10.20;99.90;;;;;;5092189;28;20558;-62
2023/05/28 03:48:57;;;;;;;8.98;1.60;;;10.20;99.90;;;;;;5109776;28;20071;-62
2023/05/28 03:51:23;;;;;;;2.40;1.70;;;10.20;99.90;;;;;;5091969;28;20086;-63
2023/05/28 03:53:49;;;;;;;2.15;1.25;;;10.10;99.90;;;;;;5110945;28;20467;-63
2023/05/28 03:56:16;;;;;;;4.25;1.60;;;10.10;99.90;;;;;;5074715;28;20054;-63
2023/05/28 03:58:42;;;;;;;3.00;1.58;;;10.10;99.90;;;;;;5092045;28;20089;-63
2023/05/28 04:01:09;;;;;;;2.92;1.00;;;10.10;99.90;;;;;;5075037;28;20043;-62
2023/05/28 04:03:35;;;;;;;1.92;0.95;;;10.10;99.90;;;;;;5091904;28;20097;-62
2023/05/28 04:06:02;;;;;;;1.73;1.17;;;10.10;99.90;;;;;;5110048;28;20484;-62
2023/05/28 04:08:28;;;;;;;2.88;1.40;;;10.10;99.90;;;;;;5110271;28;20084;-63
2023/05/28 04:10:54;;;;;;;2.55;1.85;;;10.10;99.90;;;;;;5091388;28;20480;-62
2023/05/28 04:13:20;;;;;;;5.93;2.30;;;10.10;99.90;;;;;;5091913;28;20036;-63
2023/05/28 04:15:46;;;;;;;5.28;1.67;;;10.00;99.90;;;;;;5090989;28;20530;-62
2023/05/28 04:18:11;;;;;;;4.57;1.98;;;10.10;99.90;;;;;;5074684;28;20039;-63
2023/05/28 04:20:37;;;;;;;2.35;1.50;;;10.00;99.90;;;;;;5092178;28;20055;-63
2023/05/28 04:23:03;;;;;;;6.35;1.77;;;10.10;99.90;;;;;;5092171;28;20043;-63
2023/05/28 04:25:29;;;;;;;2.45;1.38;;;10.10;99.90;;;;;;5091559;28;20395;-62
2023/05/28 04:27:56;;;;;;;3.47;1.52;;;10.20;99.90;;;;;;5076056;28;20097;-63
2023/05/28 04:30:23;;;;;;;4.20;1.98;;;10.20;99.90;;;;;;5092210;28;20641;-63
2023/05/28 04:32:53;;;;;;;3.90;1.48;;;10.20;99.90;;;;;;5092251;28;20046;-63
2023/05/28 04:35:19;;;;;;;3.47;1.40;;;10.30;99.90;;;;;;5092590;28;20081;-63
2023/05/28 04:37:45;;;;;;;3.67;1.77;;;10.30;99.90;;;;;;5110343;28;20040;-63
2023/05/28 04:40:14;;;;;;;2.80;1.38;;;10.40;99.90;;;;;;5092598;28;20062;-63
2023/05/28 04:42:41;;;;;;;2.67;1.27;;;10.40;99.90;;;;;;5092275;28;20047;-63
2023/05/28 04:45:08;;;;;;;3.63;1.40;;;10.50;99.90;;;;;;5074621;28;20044;-63
2023/05/28 04:47:34;;;;;;;6.57;1.50;;;10.70;99.90;;;;;;5092384;28;20127;-63
2023/05/28 04:50:03;;;;;;;4.72;1.75;;;10.60;99.90;;;;;;5091868;28;20095;-63
2023/05/28 04:52:31;;;;;;;3.83;1.65;;;10.80;99.90;;;;;;5091287;28;20040;-63
2023/05/28 04:54:57;;;;;;;3.40;1.60;;;10.80;99.90;;;;;;5092116;28;20083;-64
2023/05/28 04:57:23;;;;;;;5.45;2.13;;;10.90;99.90;;;;;;5092134;28;20089;-63
2023/05/28 04:59:49;;;;;;;3.50;1.70;;;11.00;99.90;;;;;;5091297;28;20094;-63
2023/05/28 05:02:18;;;;;;;4.65;1.67;;;11.10;99.90;;;;;;5092334;28;20040;-63
2023/05/28 05:04:45;;;;;;;2.45;1.77;;;11.20;99.90;;;;;;5109285;28;20052;-64
2023/05/28 05:07:12;;;;;;;1.77;1.00;;;11.20;99.90;;;;;;5109925;28;20119;-63
2023/05/28 05:09:38;;;;;;;5.00;1.85;;;11.30;99.90;;;;;;5092253;28;20040;-64
2023/05/28 05:12:05;;;;;;;3.92;1.85;;;11.30;99.90;;;;;;5109829;28;20067;-63
2023/05/28 05:14:31;;;;;;;3.53;1.60;;;11.40;99.90;;;;;;5075330;28;20075;-64
2023/05/28 05:16:57;;;;;;;3.28;1.23;;;11.50;99.90;;;;;;5074910;28;20050;-64
2023/05/28 05:19:23;;;;;;;2.80;1.58;;;11.60;99.90;;;;;;5091364;28;20038;-64
2023/05/28 05:21:49;;;;;;;3.10;1.63;;;11.70;99.90;;;;;;5110104;28;20074;-64
2023/05/28 05:24:15;;;;;;;6.47;1.98;;;11.70;99.90;;;;;;5109763;28;20067;-64
2023/05/28 05:26:40;;;;;;;3.13;1.58;;;11.80;99.90;;;;;;5090974;28;20048;-64
2023/05/28 05:29:06;;;;;;;3.80;1.67;;;11.80;99.90;;;;;;5091881;28;20068;-64
2023/05/28 05:31:32;;;;;;;6.22;2.08;;;11.90;99.90;;;;;;5091875;28;20373;-64
2023/05/28 05:33:58;;;;;;;3.22;0.95;;;11.90;99.90;;;;;;5091655;28;20039;-64
2023/05/28 05:36:23;;;;;;;6.22;2.08;;;11.90;99.90;;;;;;5111367;28;20515;-64
2023/05/28 05:38:49;;;;;;;4.05;1.35;;;11.90;99.90;;;;;;5114293;28;20046;-64
2023/05/28 05:41:15;;;;;;;1.50;0.85;;;12.00;99.90;;;;;;5095273;28;20592;-64
2023/05/28 05:43:41;;;;;;;4.68;2.25;;;12.10;99.90;;;;;;5078652;28;20514;-64
2023/05/28 05:46:07;;;;;;;2.25;1.30;;;12.10;99.90;;;;;;5095459;28;20040;-64
2023/05/28 05:48:32;;;;;;;4.18;1.65;;;12.10;99.90;;;;;;5113245;28;20503;-64
2023/05/28 05:51:00;;;;;;;5.43;1.60;;;12.30;99.90;;;;;;5078416;28;20043;-64
2023/05/28 05:53:26;;;;;;;2.92;1.50;;;12.30;99.90;;;;;;5078692;28;20108;-64
2023/05/28 05:55:52;;;;;;;5.00;1.35;;;12.40;99.90;;;;;;5094576;28;20723;-65
2023/05/28 05:58:18;;;;;;;3.88;1.38;;;12.50;99.90;;;;;;5113612;28;20036;-64
2023/05/28 06:00:44;;;;;;;3.40;1.15;;;12.60;99.90;;;;;;5077497;28;20075;-64
2023/05/28 06:03:10;;;;;;;3.20;1.48;;;12.80;99.90;;;;;;5095320;28;20075;-64
2023/05/28 06:05:36;;;;;;;4.72;1.88;;;12.90;99.90;;;;;;5113749;28;20560;-64
2023/05/28 06:08:02;;;;;;;3.90;1.48;;;13.10;99.90;;;;;;5094420;28;20049;-64
2023/05/28 06:10:29;;;;;;;5.68;1.73;;;13.30;99.90;;;;;;5078300;28;20036;-64
2023/05/28 06:12:55;;;;;;;4.03;1.20;;;13.40;99.90;;;;;;5095266;28;20042;-64
2023/05/28 06:15:22;;;;;;;1.33;1.00;;;13.60;99.90;;;;;;5094661;28;20404;-63
2023/05/28 06:17:48;;;;;;;3.05;1.25;;;13.70;99.90;;;;;;5113369;28;20039;-65
2023/05/28 06:20:14;;;;;;;3.28;1.60;;;13.80;99.90;;;;;;5112996;28;20092;-64
2023/05/28 06:22:40;;;;;;;3.05;1.60;;;14.00;99.90;;;;;;5093170;28;20047;-64
2023/05/28 06:25:08;;;;;;;4.00;1.42;;;14.10;99.90;;;;;;5093082;28;20069;-65
2023/05/28 06:27:35;;;;;;;3.30;1.42;;;14.30;99.90;;;;;;5112451;28;20048;-64
2023/05/28 06:30:02;;;;;;;3.22;1.25;;;14.50;99.90;;;;;;5093397;28;20046;-65
2023/05/28 06:32:28;;;;;;;2.75;1.58;;;14.70;99.90;;;;;;5112568;28;20040;-65
2023/05/28 06:34:54;;;;;;;5.63;1.75;;;14.90;99.90;;;;;;5094047;28;20050;-65
2023/05/28 06:37:19;;;;;;;2.80;1.20;;;15.00;99.90;;;;;;5093395;28;20423;-65
2023/05/28 06:39:45;;;;;;;3.95;1.30;;;15.10;99.90;;;;;;5094011;28;20039;-65
2023/05/28 06:42:11;;;;;;;7.63;1.77;;;15.40;99.90;;;;;;5093839;28;20035;-65
2023/05/28 06:44:37;;;;;;;2.47;1.30;;;15.60;99.90;;;;;;5093232;28;20044;-65
2023/05/28 06:47:03;;;;;;;2.90;1.15;;;15.80;99.90;;;;;;5093843;28;20040;-67
2023/05/28 06:49:28;;;;;;;12.63;2.50;;;16.00;99.90;;;;;;5092752;28;20032;-66
2023/05/28 06:51:54;;;;;;;2.83;1.30;;;16.20;99.90;;;;;;5093081;28;20062;-65
2023/05/28 06:54:20;;;;;;;2.60;1.50;;;16.50;99.90;;;;;;5093649;28;20039;-65
2023/05/28 06:56:46;;;;;;;3.15;1.17;;;16.80;99.90;;;;;;5076356;28;20039;-65
2023/05/28 06:59:12;;;;;;;3.97;1.10;;;17.00;99.90;;;;;;5106480;28;20561;-66
2023/05/28 07:01:38;;;;;;;6.78;2.05;;;17.20;99.90;;;;;;5111904;28;20385;-65
2023/05/28 07:04:04;;;;;;;2.63;1.27;;;17.40;99.90;;;;;;5092343;28;20047;-65
2023/05/28 07:06:30;;;;;;;3.30;1.17;;;17.50;99.90;;;;;;5093182;28;20040;-65
2023/05/28 07:08:56;;;;;;;5.22;1.60;;;17.70;99.90;;;;;;5111750;28;20040;-65
2023/05/28 07:11:21;;;;;;;3.40;1.15;;;17.90;99.90;;;;;;5076076;28;20038;-65
2023/05/28 07:13:47;;;;;;;2.88;1.40;;;18.10;99.90;;;;;;5093253;28;20039;-65
2023/05/28 07:16:13;;;;;;;4.35;1.40;;;18.20;99.90;;;;;;5093230;28;20039;-65
2023/05/28 07:18:40;;;;;;;3.55;1.13;;;18.30;99.90;;;;;;5092821;28;20043;-66
2023/05/28 07:21:05;;;;;;;4.07;1.27;;;18.40;99.90;;;;;;5092871;28;20130;-66
2023/05/28 07:23:31;;;;;;;4.22;1.27;;;18.60;99.90;;;;;;5093299;28;20148;-65
2023/05/28 07:25:57;;;;;;;4.05;1.40;;;18.80;99.90;;;;;;5092204;28;20036;-66
2023/05/28 07:28:23;;;;;;;4.38;1.80;;;18.90;99.90;;;;;;5111440;28;20092;-66
2023/05/28 07:30:49;;;;;;;5.40;1.30;;;19.10;99.90;;;;;;5076479;28;20039;-66
2023/05/28 07:33:15;;;;;;;4.22;1.45;;;19.30;99.90;;;;;;5092590;28;20439;-66
2023/05/28 07:35:41;;;;;;;3.55;1.38;;;19.40;99.90;;;;;;5111002;28;20046;-66
2023/05/28 07:38:10;;;;;;;3.70;1.73;;;19.50;99.90;;;;;;5093099;28;20044;-66
2023/05/28 07:40:36;;;;;;;2.83;1.33;;;19.60;99.90;;;;;;5092398;28;20545;-66
2023/05/28 07:43:02;;;;;;;5.38;0.93;;;19.80;99.90;;;;;;5092707;28;20127;-66
2023/05/28 07:45:27;;;;;;;5.15;1.83;;;19.90;99.90;;;;;;5110737;28;20052;-66
2023/05/28 07:47:53;;;;;;;2.63;1.40;;;20.00;99.90;;;;;;5074722;28;20479;-66
2023/05/28 07:50:19;;;;;;;3.85;1.35;;;20.10;99.90;;;;;;5092371;28;20094;-66
2023/05/28 07:52:45;;;;;;;3.08;1.40;;;20.30;99.90;;;;;;5074587;28;20490;-66
2023/05/28 07:55:11;;;;;;;4.50;1.30;;;20.50;99.90;;;;;;5091961;28;20039;-66
2023/05/28 07:57:37;;;;;;;3.85;1.30;;;20.50;99.90;;;;;;5110197;28;20039;-65
2023/05/28 08:00:06;;;;;;;5.10;1.52;;;20.50;99.90;;;;;;5091230;28;20055;-66
2023/05/28 08:02:33;;;;;;;3.58;1.33;;;20.80;99.90;;;;;;5075258;28;20439;-66
2023/05/28 08:05:00;;;;;;;4.97;2.63;;;21.00;99.90;;;;;;5074897;28;20036;-66
2023/05/28 08:07:27;;;;;;;5.03;1.60;;;21.10;99.90;;;;;;5109410;28;20044;-66
2023/05/28 08:09:54;;;;;;;3.80;1.17;;;21.30;99.90;;;;;;5091841;28;20036;-66
2023/05/28 08:12:19;;;;;;;3.42;1.48;;;21.40;99.90;;;;;;5110019;28;20042;-66
2023/05/28 08:14:45;;;;;;;4.05;1.45;;;21.50;99.90;;;;;;5091240;28;20035;-64
2023/05/28 08:17:11;;;;;;;2.80;1.42;;;21.50;99.90;;;;;;5074815;28;20054;-66
2023/05/28 08:19:37;;;;;;;4.22;1.40;;;21.50;99.90;;;;;;5086937;28;20112;-65
2023/05/28 08:22:02;;;;;;;2.58;1.10;;;21.50;99.90;;;;;;5073996;28;20438;-66
2023/05/28 08:24:28;;;;;;;3.63;1.45;;;21.70;99.90;;;;;;5091694;28;20050;-66
2023/05/28 08:26:54;;;;;;;3.35;1.23;;;21.70;99.90;;;;;;5091707;28;20073;-65
2023/05/28 08:29:20;;;;;;;3.30;1.40;;;21.70;99.90;;;;;;5090633;28;20043;-66
2023/05/28 08:31:46;;;;;;;4.53;1.40;;;21.70;99.90;;;;;;5091526;28;20062;-66
2023/05/28 08:34:12;;;;;;;3.47;1.35;;;21.80;99.90;;;;;;5109501;28;20519;-66
2023/05/28 08:36:38;;;;;;;5.32;1.60;;;21.90;99.90;;;;;;5074075;28;20093;-66
2023/05/28 08:39:04;;;;;;;2.83;1.27;;;22.10;99.90;;;;;;5074461;28;20377;-66
2023/05/28 08:41:30;;;;;;;4.75;1.30;;;22.20;99.90;;;;;;5109738;28;20109;-66
2023/05/28 08:43:56;;;;;;;4.70;1.27;;;22.30;99.90;;;;;;5090698;28;20127;-66
2023/05/28 08:46:22;;;;;;;2.28;0.90;;;22.40;99.90;;;;;;5074552;28;20118;-66
2023/05/28 08:48:49;;;;;;;4.18;0.98;;;22.50;99.90;;;;;;5090562;28;20044;-66
2023/05/28 08:51:19;;;;;;;3.45;1.70;;;22.80;99.90;;;;;;5091043;28;20066;-66
2023/05/28 08:53:47;;;;;;;3.45;1.40;;;22.90;99.90;;;;;;5087726;28;20040;-66
2023/05/28 08:56:13;;;;;;;4.45;1.83;;;23.00;99.90;;;;;;5070678;28;20488;-66
2023/05/28 08:58:39;;;;;;;2.38;1.23;;;23.10;99.90;;;;;;5088873;28;20050;-66
2023/05/28 09:01:06;;;;;;;3.85;1.63;;;23.10;99.90;;;;;;5088825;28;20052;-65
2023/05/28 09:03:37;;;;;;;4.93;1.95;;;23.30;99.90;;;;;;5070493;28;20043;-65
2023/05/28 09:06:03;;;;;;;3.95;1.40;;;23.40;99.90;;;;;;5054399;28;20078;-66
2023/05/28 09:08:29;;;;;;;3.47;1.58;;;23.20;99.00;;;;;;5071035;28;20519;-65
2023/05/28 09:11:12;;;;;;;3.85;2.00;;;23.30;99.40;;;;;;5071886;28;20075;-66
2023/05/28 09:13:45;;;;;;;4.13;2.05;;;23.40;97.90;;;;;;5095793;28;20417;-66
2023/05/28 09:16:20;;;;;;;4.07;2.38;;;23.50;97.50;;;;;;5077403;28;20071;-66
2023/05/28 09:18:48;;;;;;;5.88;1.42;;;23.40;96.50;;;;;;5095339;28;20082;-65
2023/05/28 09:21:14;;;;;;;4.57;1.70;;;23.30;96.50;;;;;;5077606;28;20124;-66
2023/05/28 09:23:40;;;;;;;5.00;1.88;;;23.40;97.10;;;;;;5076735;28;20036;-64
2023/05/28 09:26:09;;;;;;;3.95;1.45;;;23.70;96.30;;;;;;5095733;28;20036;-66
2023/05/28 09:28:35;;;;;;;10.00;1.70;;;23.90;94.90;;;;;;5095395;28;20044;-66
2023/05/28 09:31:05;;;;;;;4.78;2.17;;;24.20;95.30;;;;;;5076832;28;20042;-66
2023/05/28 09:33:33;;;;;;;4.85;2.15;;;24.30;92.70;;;;;;5077211;28;20047;-66
2023/05/28 09:36:00;;;;;;;4.97;1.90;;;24.30;92.60;;;;;;5077407;28;20090;-66
2023/05/28 09:38:26;;;;;;;2.78;1.15;;;24.20;93.00;;;;;;5076741;28;20040;-66
2023/05/28 09:40:57;;;;;;;4.43;1.40;;;24.40;93.50;;;;;;5077110;28;20121;-66
2023/05/28 09:43:30;;;;;;;3.17;1.35;;;24.50;93.10;;;;;;5095839;28;20068;-66
2023/05/28 09:46:09;;;;;;;3.55;1.60;;;24.40;92.60;;;;;;5076363;28;20048;-66
2023/05/28 09:48:35;;;;;;;2.83;1.40;;;24.40;90.90;;;;;;5060658;28;20392;-66
2023/05/28 09:51:07;;;;;;;2.83;1.33;;;24.50;92.30;;;;;;5077075;28;20420;-65
2023/05/28 09:53:38;;;;;;;2.90;1.25;;;24.80;91.70;;;;;;5076815;28;20039;-66
2023/05/28 09:56:05;;;;;;;2.70;1.25;;;25.00;91.70;;;;;;5095386;28;20047;-66
2023/05/28 09:58:35;;;;;;;1.95;0.95;;;25.00;91.30;;;;;;5077218;28;20035;-67
2023/05/28 10:01:07;;;;;;;3.45;1.65;;;25.10;91.00;;;;;;5060553;28;20044;-65
2023/05/28 10:03:38;;;;;;;2.10;1.10;;;25.20;89.10;;;;;;5077445;28;20048;-65
2023/05/28 10:06:11;;;;;;;2.58;1.25;;;25.20;90.40;;;;;;5094367;28;20070;-66
2023/05/28 10:08:38;;;;;;;2.50;1.10;;;25.30;90.40;;;;;;5095178;28;20054;-66
2023/05/28 10:11:11;;;;;;;5.65;1.63;;;25.40;90.20;;;;;;5076671;28;20074;-66
2023/05/28 10:13:38;;;;;;;3.50;1.25;;;25.30;87.80;;;;;;5094928;28;20490;-65
2023/05/28 10:16:04;;;;;;;3.80;1.35;;;25.40;89.80;;;;;;5076995;28;20050;-65
2023/05/28 10:18:30;;;;;;;2.88;1.40;;;25.50;90.00;;;;;;5095211;28;20063;-66
2023/05/28 10:20:58;;;;;;;2.67;1.13;;;25.60;89.00;;;;;;5076483;28;20484;-65
2023/05/28 10:23:25;;;;;;;2.78;1.20;;;25.60;88.00;;;;;;5073845;28;20447;-66
2023/05/28 10:25:51;;;;;;;3.45;1.60;;;25.70;87.10;;;;;;5091908;28;20388;-65
2023/05/28 10:28:20;;;;;;;3.38;1.27;;;25.80;85.50;;;;;;5091013;28;20047;-66
2023/05/28 10:30:45;;;;;;;2.92;1.48;;;25.80;84.20;;;;;;5073555;28;20047;-64
2023/05/28 10:33:18;;;;;;;2.00;1.00;;;25.60;80.00;;;;;;5065602;28;20039;-66
2023/05/28 10:35:55;;;;;;;3.25;1.67;;;25.60;78.50;;;;;;5093061;28;20495;-65
2023/05/28 10:38:22;;;;;;;4.13;1.45;;;25.70;77.70;;;;;;5093614;28;20039;-65
2023/05/28 10:40:51;;;;;;;3.53;2.15;;;25.90;81.50;;;;;;5092859;28;20499;-65
2023/05/28 10:43:38;;;;;;;5.13;1.45;;;26.00;79.00;;;;;;5076549;28;20047;-63
2023/05/28 10:46:39;;;;;;;3.25;1.45;;;26.00;76.00;;;;;;5088115;28;20044;-64
2023/05/28 10:49:15;;;;;;;4.60;1.63;;;26.00;73.20;;;;;;5064362;28;20047;-65
2023/05/28 10:52:00;;;;;;;4.30;2.03;;;25.90;77.90;;;;;;5076344;28;20126;-65
2023/05/28 10:54:38;;;;;;;4.10;1.83;;;25.90;72.20;;;;;;5076998;28;20300;-65
2023/05/28 10:57:13;;;;;;;3.85;1.88;;;25.90;75.70;;;;;;5091419;28;20408;-65
2023/05/28 10:59:47;;;;;;;3.47;1.35;;;25.90;75.80;;;;;;5072830;28;20496;-65
2023/05/28 11:02:25;;;;;;;6.53;1.77;;;26.00;76.50;;;;;;5055582;28;20131;-65
2023/05/28 11:04:55;;;;;;;2.70;1.33;;;26.10;74.30;;;;;;5084581;28;20046;-65
2023/05/28 11:07:27;;;;;;;2.70;1.38;;;26.00;72.80;;;;;;5093052;28;20032;-63
2023/05/28 11:09:56;;;;;;;4.65;1.73;;;26.00;73.40;;;;;;5110861;28;20039;-65
2023/05/28 11:12:22;;;;;;;3.70;1.83;;;25.90;70.90;;;;;;5092815;28;20120;-64
2023/05/28 11:14:49;;;;;;;3.33;1.70;;;25.80;67.80;;;;;;5092937;28;20035;-65
2023/05/28 11:17:15;;;;;;;4.50;1.90;;;25.80;70.10;;;;;;5092178;28;20035;-65
2023/05/28 11:19:48;;;;;;;3.55;1.50;;;25.80;69.90;;;;;;5111136;28;20070;-65
2023/05/28 11:22:17;;;;;;;3.90;1.60;;;25.90;70.10;;;;;;5092918;28;20042;-65
2023/05/28 11:24:54;;;;;;;3.85;1.40;;;26.00;70.00;;;;;;5110539;28;20088;-65
2023/05/28 11:27:22;;;;;;;5.60;2.35;;;26.20;69.40;;;;;;5092567;28;20088;-65
2023/05/28 11:29:50;;;;;;;3.33;1.65;;;26.30;69.50;;;;;;5110412;28;20046;-65
2023/05/28 11:32:19;;;;;;;3.75;1.58;;;26.40;69.40;;;;;;5110950;28;20430;-64
2023/05/28 11:34:45;;;;;;;2.75;1.50;;;26.50;68.20;;;;;;5092492;28;20437;-65
2023/05/28 11:37:11;;;;;;;4.65;1.90;;;26.50;64.60;;;;;;5092154;28;20036;-65
2023/05/28 11:39:39;;;;;;;2.30;1.40;;;26.40;66.40;;;;;;5110778;28;20793;-65
2023/05/28 11:42:08;;;;;;;4.97;1.40;;;26.30;66.80;;;;;;5092571;28;20031;-65
2023/05/28 11:44:34;;;;;;;2.78;1.50;;;26.30;67.00;;;;;;5091429;28;20484;-65
2023/05/28 11:46:59;;;;;;;3.50;1.45;;;26.30;67.30;;;;;;5090447;28;20032;-65
2023/05/28 11:49:27;;;;;;;2.83;1.38;;;26.30;67.40;;;;;;5071570;28;20503;-65
2023/05/28 11:51:53;;;;;;;3.95;1.33;;;26.30;66.90;;;;;;5089605;28;20083;-65
2023/05/28 11:54:19;;;;;;;4.60;1.02;;;26.30;67.10;;;;;;5089792;28;20075;-64
2023/05/28 11:56:49;;;;;;;4.75;1.10;;;26.30;67.90;;;;;;5071690;28;20044;-65
2023/05/28 11:59:17;;;;;;;2.95;1.00;;;26.20;67.40;;;;;;5072209;28;20040;-64
2023/05/28 12:01:43;;;;;;;2.37;0.77;;;26.10;68.30;;;;;;5071851;28;20654;-65
2023/05/28 12:04:08;;;;;;;1.20;0.68;;;26.10;68.40;;;;;;5090054;28;20119;-64
2023/05/28 12:06:48;;;;;;;1.25;0.63;;;26.10;69.00;;;;;;5070902;28;20067;-65
2023/05/28 12:09:15;;;;;;;1.13;0.52;;;26.20;69.30;;;;;;5090131;28;20222;-65
2023/05/28 12:11:41;;;;;;;1.77;0.77;;;26.30;70.40;;;;;;5070808;28;20039;-64
2023/05/28 12:14:16;;;;;;;3.30;0.70;;;26.30;69.60;;;;;;5071491;28;20093;-64
2023/05/28 12:16:47;;;;;;;2.15;0.75;;;26.30;68.70;;;;;;5089789;28;20059;-64
2023/05/28 12:19:16;;;;;;;1.58;0.60;;;26.10;68.50;;;;;;5070683;28;20177;-65
2023/05/28 12:21:43;;;;;;;;;;;25.80;69.50;;;;;;5090134;28;20059;-64
2023/05/28 12:24:14;;;;;;;1.52;0.55;;;25.50;63.80;;;;;;5071222;28;19916;-64
2023/05/28 12:26:43;;;;;;;1.60;0.80;;;25.40;69.50;;;;;;5053829;28;20136;-64
2023/05/28 12:29:09;;;;;;;;;;;25.40;70.50;;;;;;5089985;28;20036;-63
2023/05/28 12:31:35;;;;;;;3.03;0.95;;;25.40;72.30;;;;;;5054725;28;19972;-64
2023/05/28 12:34:01;;;;;;;1.67;0.77;;;25.40;70.80;;;;;;5053939;28;20047;-64
2023/05/28 12:36:27;;;;;;;2.65;0.60;;;25.40;70.90;;;;;;5071355;28;20400;-64
2023/05/28 12:38:53;;;;;;;2.03;0.55;;;25.40;71.40;;;;;;5070889;28;20036;-64
2023/05/28 12:41:20;;;;;;;1.88;0.70;;;25.40;71.60;;;;;;5081670;28;20035;-64
2023/05/28 12:43:45;;;;;;;1.70;0.88;;;25.30;70.70;;;;;;5109434;28;20136;-64
2023/05/28 12:46:11;;;;;;;3.92;0.60;;;25.10;71.40;;;;;;5108814;28;20116;-64
2023/05/28 12:48:37;;;;;;;2.20;0.90;;;25.00;71.40;;;;;;5090685;28;20054;-64
2023/05/28 12:51:03;;;;;;;4.38;0.85;;;24.90;71.50;;;;;;5087460;28;20519;-64
2023/05/28 12:53:29;;;;;;;1.60;0.90;;;24.90;72.50;;;;;;5088784;28;20036;-64